Nouasseur, Morocco
Current Conditions -  °F | °C
As of 5:30 PM on Wednesday 28 Jan 2015 (Local Time) from GMMN Reporting Station
Broken Clouds Broken Clouds  
Wind Chill: 15°   Ceiling: 1600
Heat Index: 15°   Visibility: 6mi
Dew Point: 10°   Wind: 8mph
Humidity: 72%   Direction: 350°N
Pressure: 30.3"   Gusts: NA
Location:  33.37°N, 7.58°W
Report Text: GMMN 281630Z 35007KT 9999 BKN016 15/10 Q1026 NOSIG
Loading
Personal Weather Stations






























Interactive Weather Map New forecast layout! Learn more

10-Day Weather Forecast

Advertisements
Track Severe Weather on mobile